Time;durP1;ratioP1;P1;durP2;ratioP2;P2;SDS_P1;SDS_P2;PMS_P1;PMS_P2;Temp;Humidity;BMP_temperature;BMP_pressure;BME280_temperature;BME280_humidity;BME280_pressure;Samples;Min_cycle;Max_cycle;Signal;HPM_P1;HPM_P2
2021/04/14 00:00:45;;;;;;;16.75;8.10;;;;;;;;;;4971696;28;20484;-63
2021/04/14 00:03:22;;;;;;;16.83;7.95;;;;;;;;;;4971705;28;20033;-62
2021/04/14 00:05:48;;;;;;;18.33;9.77;;;;;;;;;;4984952;28;20031;-63
2021/04/14 00:08:15;;;;;;;17.83;8.95;;;;;;;;;;4980323;28;20027;-61
2021/04/14 00:10:42;;;;;;;17.48;8.30;;;;;;;;;;4993431;23;20030;-59
2021/04/14 00:13:09;;;;;;;17.17;9.10;;;;;;;;;;4995993;28;20035;-58
2021/04/14 00:15:44;;;;;;;26.75;10.00;;;;;;;;;;4983574;28;20014;-59
2021/04/14 00:18:10;;;;;;;18.20;9.15;;;;;;;;;;4979016;28;20034;-61
2021/04/14 00:20:38;;;;;;;18.80;8.93;;;;;;;;;;4979359;28;20038;-61
2021/04/14 00:23:04;;;;;;;;;;;;;;;;;;4995530;28;20053;-58
2021/04/14 00:25:32;;;;;;;17.20;8.82;;;;;;;;;;4978761;28;19942;-60
2021/04/14 00:27:58;;;;;;;20.40;9.95;;;;;;;;;;4973539;28;20392;-57
2021/04/14 00:30:24;;;;;;;17.98;10.00;;;;;;;;;;4994878;28;20023;-60
2021/04/14 00:32:51;;;;;;;17.50;10.07;;;;;;;;;;4984478;28;20018;-58
2021/04/14 00:35:22;;;;;;;18.83;8.93;;;;;;;;;;5009059;28;20026;-57
2021/04/14 00:37:48;;;;;;;25.35;11.13;;;;;;;;;;4994406;28;20502;-57
2021/04/14 00:40:18;;;;;;;18.70;9.75;;;;;;;;;;4988506;28;20058;-59
2021/04/14 00:42:44;;;;;;;16.67;9.07;;;;;;;;;;4984406;28;20416;-59
2021/04/14 00:45:10;;;;;;;22.55;9.68;;;;;;;;;;4999566;28;20046;-58
2021/04/14 00:47:36;;;;;;;19.50;9.55;;;;;;;;;;4976466;28;20027;-55
2021/04/14 00:50:06;;;;;;;19.95;9.43;;;;;;;;;;4975499;28;20033;-55
2021/04/14 00:52:32;;;;;;;16.30;8.30;;;;;;;;;;5002602;28;20037;-62
2021/04/14 00:55:01;;;;;;;17.73;8.77;;;;;;;;;;4986664;28;20018;-59
2021/04/14 00:57:27;;;;;;;;;;;;;;;;;;4994563;28;20480;-61
2021/04/14 00:59:53;;;;;;;18.27;8.60;;;;;;;;;;4982243;28;19918;-58
2021/04/14 01:02:19;;;;;;;18.85;9.00;;;;;;;;;;4985663;28;20045;-58
2021/04/14 01:04:45;;;;;;;18.90;9.68;;;;;;;;;;4983117;28;20022;-55
2021/04/14 01:07:11;;;;;;;18.50;10.02;;;;;;;;;;4976532;28;20030;-58
2021/04/14 01:09:37;;;;;;;19.95;10.55;;;;;;;;;;4991179;28;20113;-58
2021/04/14 01:12:03;;;;;;;22.08;10.85;;;;;;;;;;4976216;28;20070;-58
2021/04/14 01:14:29;;;;;;;22.98;11.57;;;;;;;;;;4999404;28;20022;-60
2021/04/14 01:16:55;;;;;;;25.60;10.70;;;;;;;;;;4991433;28;20507;-60
2021/04/14 01:19:21;;;;;;;20.08;10.43;;;;;;;;;;4997763;28;20113;-58
2021/04/14 01:21:47;;;;;;;20.35;10.57;;;;;;;;;;4984080;28;20600;-59
2021/04/14 01:24:14;;;;;;;19.88;10.48;;;;;;;;;;4999461;28;20030;-58
2021/04/14 01:26:40;;;;;;;21.10;9.90;;;;;;;;;;4987046;28;20051;-61
2021/04/14 01:29:06;;;;;;;19.42;9.48;;;;;;;;;;4990100;28;20033;-61
2021/04/14 01:31:32;;;;;;;19.00;9.55;;;;;;;;;;4995283;28;20037;-60
2021/04/14 01:34:03;;;;;;;21.02;10.90;;;;;;;;;;4994375;28;20022;-58
2021/04/14 01:36:29;;;;;;;20.00;9.75;;;;;;;;;;4986114;28;20033;-59
2021/04/14 01:38:55;;;;;;;20.45;9.02;;;;;;;;;;4994976;28;20026;-59
2021/04/14 01:41:21;;;;;;;19.52;9.57;;;;;;;;;;4993103;28;20035;-60
2021/04/14 01:43:47;;;;;;;18.13;8.32;;;;;;;;;;4993724;28;20030;-57
2021/04/14 01:46:13;;;;;;;19.50;9.25;;;;;;;;;;4977556;28;20031;-57
2021/04/14 01:48:39;;;;;;;19.50;8.93;;;;;;;;;;4993647;28;20125;-55
2021/04/14 01:51:06;;;;;;;18.35;9.07;;;;;;;;;;4993947;28;20038;-56
2021/04/14 01:53:32;;;;;;;17.45;9.02;;;;;;;;;;4993667;28;20034;-59
2021/04/14 01:55:58;;;;;;;18.02;9.20;;;;;;;;;;4987769;28;20058;-56
2021/04/14 01:58:25;;;;;;;18.88;8.98;;;;;;;;;;4990382;28;20054;-60
2021/04/14 02:00:55;;;;;;;18.02;9.10;;;;;;;;;;4986629;28;20157;-56
2021/04/14 02:03:22;;;;;;;17.55;8.93;;;;;;;;;;4985452;28;20023;-60
2021/04/14 02:05:48;;;;;;;17.40;8.93;;;;;;;;;;4973687;28;20051;-56
2021/04/14 02:08:14;;;;;;;19.58;9.82;;;;;;;;;;4988482;28;20026;-59
2021/04/14 02:10:40;;;;;;;18.55;10.50;;;;;;;;;;4973422;28;20512;-56
2021/04/14 02:13:12;;;;;;;18.95;9.30;;;;;;;;;;4997969;28;20035;-55
2021/04/14 02:15:38;;;;;;;18.73;9.73;;;;;;;;;;4955831;29;20552;-60
2021/04/14 02:18:05;;;;;;;19.48;9.88;;;;;;;;;;4955658;29;20032;-61
2021/04/14 02:20:32;;;;;;;19.77;9.30;;;;;;;;;;4990148;28;20031;-54
2021/04/14 02:22:58;;;;;;;19.05;9.82;;;;;;;;;;4973723;28;20057;-59
2021/04/14 02:25:25;;;;;;;18.05;9.60;;;;;;;;;;4974046;28;20022;-58
2021/04/14 02:27:51;;;;;;;17.90;9.35;;;;;;;;;;4973361;28;20019;-57
2021/04/14 02:30:27;;;;;;;23.80;10.48;;;;;;;;;;4978212;28;20039;-58
2021/04/14 02:32:53;;;;;;;17.75;9.68;;;;;;;;;;4984735;28;20030;-58
2021/04/14 02:35:19;;;;;;;18.00;9.52;;;;;;;;;;4994124;28;20030;-58
2021/04/14 02:37:45;;;;;;;18.38;9.32;;;;;;;;;;4989161;28;20022;-59
2021/04/14 02:40:11;;;;;;;19.35;9.90;;;;;;;;;;4984468;28;20480;-58
2021/04/14 02:42:40;;;;;;;18.92;9.43;;;;;;;;;;4992741;28;20027;-57
2021/04/14 02:45:06;;;;;;;18.10;9.25;;;;;;;;;;4985603;28;20490;-59
2021/04/14 02:47:32;;;;;;;19.52;9.88;;;;;;;;;;4984484;28;20027;-56
2021/04/14 02:49:58;;;;;;;18.58;9.23;;;;;;;;;;4979051;28;20031;-53
2021/04/14 02:52:24;;;;;;;18.88;9.45;;;;;;;;;;4989000;28;20510;-56
2021/04/14 02:54:50;;;;;;;19.98;9.32;;;;;;;;;;4974072;28;20022;-58
2021/04/14 02:57:16;;;;;;;17.55;9.52;;;;;;;;;;4981079;28;20514;-54
2021/04/14 02:59:42;;;;;;;18.98;9.52;;;;;;;;;;4985170;28;20069;-59
2021/04/14 03:02:08;;;;;;;19.45;9.30;;;;;;;;;;4984125;28;20456;-58
2021/04/14 03:04:36;;;;;;;21.75;9.27;;;;;;;;;;4980841;28;20048;-60
2021/04/14 03:07:03;;;;;;;18.60;9.07;;;;;;;;;;4987753;28;20022;-59
2021/04/14 03:09:29;;;;;;;18.58;9.20;;;;;;;;;;4988121;28;20488;-57
2021/04/14 03:11:55;;;;;;;20.58;9.73;;;;;;;;;;4990964;28;20030;-55
2021/04/14 03:14:21;;;;;;;19.08;9.23;;;;;;;;;;4985390;28;20031;-54
2021/04/14 03:16:47;;;;;;;20.00;9.30;;;;;;;;;;4983025;28;20026;-56
2021/04/14 03:19:13;;;;;;;19.05;9.50;;;;;;;;;;4975341;28;20436;-57
2021/04/14 03:21:39;;;;;;;21.38;10.00;;;;;;;;;;4972486;28;20030;-60
2021/04/14 03:24:05;;;;;;;18.45;8.88;;;;;;;;;;4984911;28;20064;-60
2021/04/14 03:26:31;;;;;;;21.33;8.88;;;;;;;;;;4980936;28;20023;-59
2021/04/14 03:28:57;;;;;;;17.48;9.52;;;;;;;;;;4979541;28;20374;-57
2021/04/14 03:31:26;;;;;;;19.48;9.63;;;;;;;;;;4971236;28;20039;-57
2021/04/14 03:33:52;;;;;;;20.20;9.20;;;;;;;;;;4984966;28;20037;-59
2021/04/14 03:36:18;;;;;;;17.65;9.20;;;;;;;;;;4983847;28;20041;-58
2021/04/14 03:38:44;;;;;;;19.70;9.73;;;;;;;;;;4978247;28;20034;-55
2021/04/14 03:41:10;;;;;;;17.13;9.57;;;;;;;;;;4963818;28;20366;-57
2021/04/14 03:43:36;;;;;;;19.55;9.18;;;;;;;;;;5000047;28;20029;-54
2021/04/14 03:46:02;;;;;;;20.40;9.45;;;;;;;;;;4991811;28;20018;-56
2021/04/14 03:48:28;;;;;;;18.52;9.65;;;;;;;;;;4989691;28;20489;-56
2021/04/14 03:50:57;;;;;;;18.42;9.90;;;;;;;;;;4996236;28;20066;-55
2021/04/14 03:53:24;;;;;;;;;;;;;;;;;;4973788;28;20232;-55
2021/04/14 03:56:02;;;;;;;18.70;9.63;;;;;;;;;;4973417;28;19945;-59
2021/04/14 03:58:31;;;;;;;18.02;9.23;;;;;;;;;;4973590;28;20026;-56
2021/04/14 04:00:58;;;;;;;19.90;9.07;;;;;;;;;;4977108;28;20026;-55
2021/04/14 04:03:25;;;;;;;18.42;10.32;;;;;;;;;;4970156;28;20028;-57
2021/04/14 04:05:51;;;;;;;18.27;9.25;;;;;;;;;;4989128;28;20023;-56
2021/04/14 04:08:18;;;;;;;18.33;9.70;;;;;;;;;;4977280;28;20058;-59
2021/04/14 04:10:44;;;;;;;19.45;9.32;;;;;;;;;;4975813;28;20031;-58
2021/04/14 04:13:12;;;;;;;17.90;8.98;;;;;;;;;;4977326;28;20034;-60
2021/04/14 04:15:38;;;;;;;22.95;11.30;;;;;;;;;;4985277;28;20077;-54
2021/04/14 04:18:05;;;;;;;18.65;10.18;;;;;;;;;;5007640;28;20026;-58
2021/04/14 04:20:31;;;;;;;20.23;10.88;;;;;;;;;;4998004;28;20388;-57
2021/04/14 04:22:57;;;;;;;21.27;9.30;;;;;;;;;;4999482;28;20030;-62
2021/04/14 04:25:23;;;;;;;20.55;10.77;;;;;;;;;;4999875;28;20041;-62
2021/04/14 04:27:49;;;;;;;18.83;10.27;;;;;;;;;;4998182;28;20022;-58
2021/04/14 04:30:16;;;;;;;19.23;9.95;;;;;;;;;;4997390;28;20401;-56
2021/04/14 04:32:42;;;;;;;19.67;10.20;;;;;;;;;;4996412;28;20066;-57
2021/04/14 04:35:08;;;;;;;21.77;10.05;;;;;;;;;;4996423;28;20034;-60
2021/04/14 04:37:35;;;;;;;22.15;12.60;;;;;;;;;;4995222;28;20038;-60
2021/04/14 04:40:01;;;;;;;20.33;10.00;;;;;;;;;;4994571;28;20027;-60
2021/04/14 04:42:27;;;;;;;18.83;9.48;;;;;;;;;;4996310;28;20396;-55
2021/04/14 04:44:53;;;;;;;22.55;10.20;;;;;;;;;;4996465;28;20388;-60
2021/04/14 04:47:19;;;;;;;23.95;10.70;;;;;;;;;;4996019;28;20030;-58
2021/04/14 04:49:45;;;;;;;20.10;10.30;;;;;;;;;;4994670;28;20120;-60
2021/04/14 04:52:11;;;;;;;19.33;9.77;;;;;;;;;;4995175;28;20056;-59
2021/04/14 04:54:37;;;;;;;19.75;10.63;;;;;;;;;;4995647;28;20022;-60
2021/04/14 04:57:03;;;;;;;21.77;10.25;;;;;;;;;;4995884;28;20057;-55
2021/04/14 04:59:29;;;;;;;20.58;10.10;;;;;;;;;;4994857;28;20200;-58
2021/04/14 05:01:58;;;;;;;19.25;9.63;;;;;;;;;;4995296;28;20172;-60
2021/04/14 05:04:24;;;;;;;21.42;10.57;;;;;;;;;;4995568;28;20030;-59
2021/04/14 05:06:50;;;;;;;19.55;9.43;;;;;;;;;;4994815;28;20022;-60
2021/04/14 05:09:16;;;;;;;24.30;10.23;;;;;;;;;;4995705;28;20029;-58
2021/04/14 05:11:42;;;;;;;21.63;9.50;;;;;;;;;;4995443;28;20109;-55
2021/04/14 05:14:08;;;;;;;20.08;10.18;;;;;;;;;;4995305;28;20448;-59
2021/04/14 05:16:34;;;;;;;19.00;8.70;;;;;;;;;;4994421;28;20026;-58
2021/04/14 05:19:00;;;;;;;20.55;10.35;;;;;;;;;;4994693;28;20022;-58
2021/04/14 05:21:26;;;;;;;19.08;9.48;;;;;;;;;;4994308;28;20026;-58
2021/04/14 05:23:53;;;;;;;19.63;9.63;;;;;;;;;;4994602;28;20019;-59
2021/04/14 05:26:19;;;;;;;17.83;9.48;;;;;;;;;;4995790;28;20022;-57
2021/04/14 05:28:46;;;;;;;20.70;10.68;;;;;;;;;;4994152;28;20045;-58
2021/04/14 05:31:12;;;;;;;20.15;10.00;;;;;;;;;;4993883;28;20030;-59
2021/04/14 05:33:38;;;;;;;19.35;9.35;;;;;;;;;;4995668;28;20034;-56
2021/04/14 05:36:05;;;;;;;20.85;9.55;;;;;;;;;;4995371;28;20034;-58
2021/04/14 05:38:31;;;;;;;20.63;9.05;;;;;;;;;;4994309;28;20488;-55
2021/04/14 05:40:57;;;;;;;18.55;9.15;;;;;;;;;;4993686;28;20491;-59
2021/04/14 05:43:28;;;;;;;21.20;10.13;;;;;;;;;;4993620;28;20033;-57
2021/04/14 05:45:55;;;;;;;19.67;9.57;;;;;;;;;;4994562;28;20023;-57
2021/04/14 05:48:21;;;;;;;17.70;9.38;;;;;;;;;;4994609;28;20531;-59
2021/04/14 05:50:47;;;;;;;18.77;9.20;;;;;;;;;;4993252;28;20057;-59
2021/04/14 05:53:13;;;;;;;18.48;8.82;;;;;;;;;;4993687;28;20058;-58
2021/04/14 05:55:39;;;;;;;17.95;9.10;;;;;;;;;;4993533;28;20034;-57
2021/04/14 05:58:05;;;;;;;20.27;9.85;;;;;;;;;;4994910;28;20026;-59
2021/04/14 06:00:31;;;;;;;19.65;10.27;;;;;;;;;;4992964;28;20031;-59
2021/04/14 06:02:57;;;;;;;19.58;10.27;;;;;;;;;;4996031;28;20023;-61
2021/04/14 06:05:25;;;;;;;18.73;9.77;;;;;;;;;;4990909;28;20050;-59
2021/04/14 06:07:51;;;;;;;19.80;10.32;;;;;;;;;;4974396;28;20014;-61
2021/04/14 06:10:19;;;;;;;21.92;10.10;;;;;;;;;;4986670;28;20101;-60
2021/04/14 06:12:45;;;;;;;18.25;9.23;;;;;;;;;;4987025;23;20051;-63
2021/04/14 06:15:13;;;;;;;19.17;10.05;;;;;;;;;;4949452;29;20182;-64
2021/04/14 06:17:39;;;;;;;18.45;10.50;;;;;;;;;;4934692;29;20019;-63
2021/04/14 06:20:06;;;;;;;18.42;9.32;;;;;;;;;;4934087;29;20051;-64
2021/04/14 06:22:32;;;;;;;21.75;9.52;;;;;;;;;;4934474;29;20028;-62
2021/04/14 06:24:58;;;;;;;19.52;10.15;;;;;;;;;;4933376;29;20043;-64
2021/04/14 06:27:39;;;;;;;19.75;9.07;;;;;;;;;;4932870;29;20106;-64
2021/04/14 06:30:06;;;;;;;21.48;9.00;;;;;;;;;;4932886;29;20046;-63
2021/04/14 06:32:32;;;;;;;19.77;8.77;;;;;;;;;;4933059;29;20482;-63
2021/04/14 06:34:58;;;;;;;20.52;8.27;;;;;;;;;;4936396;29;20070;-64
2021/04/14 06:37:24;;;;;;;17.85;9.13;;;;;;;;;;4937303;29;20023;-65
2021/04/14 06:40:12;;;;;;;17.38;8.90;;;;;;;;;;4936042;28;20034;-65
2021/04/14 06:42:50;;;;;;;18.70;8.60;;;;;;;;;;4937326;29;20027;-63
2021/04/14 06:45:19;;;;;;;20.25;8.88;;;;;;;;;;4938062;29;20027;-61
2021/04/14 06:47:52;;;;;;;19.70;8.88;;;;;;;;;;4934172;28;20024;-61
2021/04/14 06:50:27;;;;;;;20.73;8.77;;;;;;;;;;4935474;28;20110;-62
2021/04/14 06:52:53;;;;;;;21.25;8.88;;;;;;;;;;4933397;29;20379;-62
2021/04/14 06:55:31;;;;;;;20.52;9.70;;;;;;;;;;4934734;29;20139;-63
2021/04/14 06:57:58;;;;;;;21.23;9.37;;;;;;;;;;4934121;29;20031;-61
2021/04/14 07:00:26;;;;;;;23.25;9.90;;;;;;;;;;4932733;29;20283;-62
2021/04/14 07:03:04;;;;;;;22.48;9.43;;;;;;;;;;4933983;29;20016;-63
2021/04/14 07:05:36;;;;;;;17.67;8.93;;;;;;;;;;4933922;29;20028;-61
2021/04/14 07:08:03;;;;;;;21.33;9.90;;;;;;;;;;4933706;29;20034;-61
2021/04/14 07:10:31;;;;;;;18.10;8.90;;;;;;;;;;4933521;29;20030;-61
2021/04/14 07:13:00;;;;;;;20.87;10.17;;;;;;;;;;4933502;29;20394;-63
2021/04/14 07:15:27;;;;;;;17.92;9.23;;;;;;;;;;4933593;29;20055;-62
2021/04/14 07:18:22;;;;;;;20.95;9.52;;;;;;;;;;4933620;29;20061;-61
2021/04/14 07:20:53;;;;;;;19.23;9.30;;;;;;;;;;4918299;29;20044;-62
2021/04/14 07:23:37;;;;;;;22.20;8.90;;;;;;;;;;4914154;29;20039;-62
2021/04/14 07:26:08;;;;;;;19.33;9.48;;;;;;;;;;4913152;29;20059;-62
2021/04/14 07:28:44;;;;;;;21.95;9.18;;;;;;;;;;4921685;29;20057;-64
2021/04/14 07:31:16;;;;;;;17.33;8.40;;;;;;;;;;4951239;28;20038;-64
2021/04/14 07:33:42;;;;;;;17.35;8.55;;;;;;;;;;4952563;28;20035;-61
2021/04/14 07:36:08;;;;;;;17.33;8.57;;;;;;;;;;4952271;28;20068;-62
2021/04/14 07:38:46;;;;;;;17.10;8.50;;;;;;;;;;4952307;28;20102;-62
2021/04/14 07:41:39;;;;;;;18.98;8.50;;;;;;;;;;4948925;28;20113;-62
2021/04/14 07:44:34;;;;;;;15.93;7.53;;;;;;;;;;4948661;28;20067;-63
2021/04/14 07:47:01;;;;;;;20.90;7.95;;;;;;;;;;4939272;29;20497;-65
2021/04/14 07:49:31;;;;;;;17.42;9.40;;;;;;;;;;4950349;28;20024;-65
2021/04/14 07:51:57;;;;;;;18.67;8.43;;;;;;;;;;4934189;29;20070;-61
2021/04/14 07:54:25;;;;;;;17.20;7.93;;;;;;;;;;4932599;29;20032;-64
2021/04/14 07:56:54;;;;;;;17.55;8.27;;;;;;;;;;4932717;29;20028;-65
2021/04/14 07:59:23;;;;;;;14.98;8.60;;;;;;;;;;4934412;29;20027;-64
2021/04/14 08:01:51;;;;;;;16.40;7.80;;;;;;;;;;4934801;29;20588;-62
2021/04/14 08:04:35;;;;;;;16.58;8.40;;;;;;;;;;4934332;29;20366;-64
2021/04/14 08:07:16;;;;;;;18.38;8.73;;;;;;;;;;4933503;29;20023;-64
2021/04/14 08:09:56;;;;;;;18.80;8.38;;;;;;;;;;4934454;29;20032;-63
2021/04/14 08:12:33;;;;;;;16.35;8.02;;;;;;;;;;4942612;29;20027;-63
2021/04/14 08:15:19;;;;;;;17.02;8.13;;;;;;;;;;4952982;28;20081;-64
2021/04/14 08:17:47;;;;;;;17.48;8.27;;;;;;;;;;4945636;28;20059;-65
2021/04/14 08:20:25;;;;;;;18.75;8.05;;;;;;;;;;4950933;28;20055;-63
2021/04/14 08:22:51;;;;;;;16.10;7.85;;;;;;;;;;4952662;28;20019;-64
2021/04/14 08:25:28;;;;;;;19.33;8.77;;;;;;;;;;4949952;28;20101;-63
2021/04/14 08:27:56;;;;;;;15.90;7.93;;;;;;;;;;4932802;29;20389;-65
2021/04/14 08:30:23;;;;;;;16.15;7.95;;;;;;;;;;4932884;29;20428;-65
2021/04/14 08:32:52;;;;;;;17.75;7.75;;;;;;;;;;4931913;29;20027;-63
2021/04/14 08:35:29;;;;;;;14.93;8.00;;;;;;;;;;4932723;29;20435;-63
2021/04/14 08:38:34;;;;;;;17.35;8.60;;;;;;;;;;4933012;29;20067;-64
2021/04/14 08:41:03;;;;;;;15.52;8.05;;;;;;;;;;4930614;29;20035;-64
2021/04/14 08:43:38;;;;;;;16.20;7.95;;;;;;;;;;4914649;29;20552;-65
2021/04/14 08:46:11;;;;;;;15.38;7.75;;;;;;;;;;4922837;29;20031;-60
2021/04/14 08:48:38;;;;;;;15.05;8.27;;;;;;;;;;4948802;28;20103;-60
2021/04/14 08:51:04;;;;;;;16.95;8.60;;;;;;;;;;4952252;28;20039;-63
2021/04/14 08:53:36;;;;;;;15.55;7.90;;;;;;;;;;4955194;28;20027;-64
2021/04/14 08:56:02;;;;;;;15.55;7.75;;;;;;;;;;4955169;28;20481;-64
2021/04/14 08:58:29;;;;;;;13.68;7.50;;;;;;;;;;4953474;28;20043;-64
2021/04/14 09:00:55;;;;;;;15.77;7.93;;;;;;;;;;4954635;28;20118;-63
2021/04/14 09:03:23;;;;;;;14.38;7.53;;;;;;;;;;4953743;28;20182;-64
2021/04/14 09:05:49;;;;;;;16.20;8.60;;;;;;;;;;4953587;28;20110;-62
2021/04/14 09:08:20;;;;;;;16.50;8.00;;;;;;;;;;4948481;28;20282;-63
2021/04/14 09:11:09;;;;;;;16.13;9.25;;;;;;;;;;4934747;29;20034;-63
2021/04/14 09:13:47;;;;;;;15.30;8.50;;;;;;;;;;4938010;29;20035;-63
2021/04/14 09:16:25;;;;;;;14.50;8.00;;;;;;;;;;4951136;28;20038;-63
2021/04/14 09:18:51;;;;;;;16.55;8.43;;;;;;;;;;4935811;29;20028;-62
2021/04/14 09:21:20;;;;;;;14.65;7.85;;;;;;;;;;4934676;29;20047;-63
2021/04/14 09:23:54;;;;;;;14.80;7.90;;;;;;;;;;4937477;29;20114;-63
2021/04/14 09:26:39;;;;;;;14.80;8.07;;;;;;;;;;4934998;29;20028;-63
2021/04/14 09:29:28;;;;;;;14.73;7.65;;;;;;;;;;4937089;29;20024;-61
2021/04/14 09:31:56;;;;;;;18.38;8.82;;;;;;;;;;4927715;29;20123;-63
2021/04/14 09:34:31;;;;;;;16.20;9.00;;;;;;;;;;4937099;29;20058;-62
2021/04/14 09:37:08;;;;;;;17.80;9.20;;;;;;;;;;4949512;28;20071;-62
2021/04/14 09:39:43;;;;;;;17.13;9.20;;;;;;;;;;4953992;28;20474;-62
2021/04/14 09:42:25;;;;;;;17.17;9.20;;;;;;;;;;4954094;28;20108;-62
2021/04/14 09:44:55;;;;;;;17.38;9.18;;;;;;;;;;4954332;28;20035;-61
2021/04/14 09:47:24;;;;;;;18.17;8.98;;;;;;;;;;4954368;28;20031;-62
2021/04/14 09:49:52;;;;;;;16.90;10.18;;;;;;;;;;4953887;28;20452;-63
2021/04/14 09:52:23;;;;;;;18.03;10.57;;;;;;;;;;4953964;28;20492;-61
2021/04/14 09:54:49;;;;;;;20.23;11.45;;;;;;;;;;4954083;28;20055;-62
2021/04/14 09:57:23;;;;;;;16.30;11.38;;;;;;;;;;4953860;28;20027;-62
2021/04/14 09:59:50;;;;;;;18.42;12.38;;;;;;;;;;4953930;28;20065;-62
2021/04/14 10:02:20;;;;;;;16.90;12.35;;;;;;;;;;4953386;28;20027;-63
2021/04/14 10:04:47;;;;;;;17.17;13.40;;;;;;;;;;4943898;28;20024;-63
2021/04/14 10:07:20;;;;;;;18.42;13.00;;;;;;;;;;4934772;29;20443;-62
2021/04/14 10:09:47;;;;;;;17.45;13.10;;;;;;;;;;4934508;29;20126;-62
2021/04/14 10:12:17;;;;;;;16.05;12.85;;;;;;;;;;4949372;28;20035;-61
2021/04/14 10:14:43;;;;;;;21.55;14.00;;;;;;;;;;4934433;29;20406;-61
2021/04/14 10:17:09;;;;;;;18.27;12.90;;;;;;;;;;4934589;29;20055;-62
2021/04/14 10:19:36;;;;;;;17.98;13.18;;;;;;;;;;4934426;29;20055;-62
2021/04/14 10:22:06;;;;;;;17.83;12.82;;;;;;;;;;4934662;29;20162;-62
2021/04/14 10:24:32;;;;;;;16.52;12.50;;;;;;;;;;4945812;28;20092;-63
2021/04/14 10:26:58;;;;;;;18.60;13.18;;;;;;;;;;4952258;28;20441;-63
2021/04/14 10:29:28;;;;;;;17.77;12.90;;;;;;;;;;4952506;28;20030;-63
2021/04/14 10:31:57;;;;;;;15.98;12.70;;;;;;;;;;4953682;28;20054;-63
2021/04/14 10:34:41;;;;;;;16.50;12.80;;;;;;;;;;4953328;28;20106;-63
2021/04/14 10:37:14;;;;;;;20.35;13.95;;;;;;;;;;4953569;28;20515;-64
2021/04/14 10:39:41;;;;;;;18.17;13.27;;;;;;;;;;4953297;28;20486;-64
2021/04/14 10:42:15;;;;;;;18.08;13.55;;;;;;;;;;4947888;28;20076;-60
2021/04/14 10:44:42;;;;;;;17.02;12.93;;;;;;;;;;4929067;29;20019;-63
2021/04/14 10:47:10;;;;;;;17.42;13.38;;;;;;;;;;4951589;28;20031;-63
2021/04/14 10:49:36;;;;;;;18.15;12.52;;;;;;;;;;4953348;28;20058;-63
2021/04/14 10:52:20;;;;;;;16.38;13.23;;;;;;;;;;4951767;28;20493;-61
2021/04/14 10:54:48;;;;;;;15.98;12.63;;;;;;;;;;4953948;28;20039;-62
2021/04/14 10:57:14;;;;;;;;;;;;;;;;;;4953710;28;20097;-62
2021/04/14 10:59:41;;;;;;;16.73;13.25;;;;;;;;;;4941270;28;20353;-62
2021/04/14 11:02:18;;;;;;;16.65;13.30;;;;;;;;;;4932918;29;20032;-64
2021/04/14 11:04:46;;;;;;;16.00;12.40;;;;;;;;;;4934411;29;20031;-63
2021/04/14 11:07:18;;;;;;;17.65;12.13;;;;;;;;;;4934195;29;20071;-63
2021/04/14 11:09:45;;;;;;;20.48;12.65;;;;;;;;;;4933775;29;20510;-62
2021/04/14 11:12:12;;;;;;;16.63;12.25;;;;;;;;;;4934056;29;20119;-62
2021/04/14 11:14:40;;;;;;;16.90;12.43;;;;;;;;;;4603362;28;10000167;-63
2021/04/14 11:17:07;;;;;;;16.98;12.27;;;;;;;;;;4931353;29;20043;-62
2021/04/14 11:19:33;;;;;;;16.35;12.25;;;;;;;;;;4929714;29;20383;-62
2021/04/14 11:22:04;;;;;;;16.38;12.43;;;;;;;;;;4931295;29;20031;-61
2021/04/14 11:24:30;;;;;;;17.02;12.85;;;2.60;99.90;;;;;;4931379;29;20023;-61
2021/04/14 11:26:58;;;;;;;17.33;12.57;;;;;;;;;;4931628;29;20159;-62
2021/04/14 11:29:24;;;;;;;15.90;12.50;;;;;;;;;;4931163;29;20413;-62
2021/04/14 11:31:52;;;;;;;15.82;12.45;;;;;;;;;;4930751;29;20026;-62
2021/04/14 11:34:22;;;;;;;15.45;12.38;;;;;;;;;;4930799;29;20027;-63
2021/04/14 11:37:07;;;;;;;16.80;12.18;;;;;;;;;;4928907;29;20024;-62
2021/04/14 11:39:54;;;;;;;15.40;12.60;;;;;;;;;;4926341;29;20616;-63
2021/04/14 11:42:24;;;;;;;15.38;12.10;;;;;;;;;;4927214;29;20056;-63
2021/04/14 11:44:54;;;;;;;15.90;12.15;;;13.90;87.60;;;;;;4929421;29;20032;-63
2021/04/14 11:47:27;;;;;;;15.55;11.70;;;12.20;86.70;;;;;;4941318;29;20038;-61
2021/04/14 11:49:53;;;;;;;16.65;11.80;;;11.90;85.80;;;;;;4943914;28;20370;-62
2021/04/14 11:52:22;;;;;;;15.30;11.60;;;;;;;;;;4930611;29;20055;-62
2021/04/14 11:54:49;;;;;;;16.45;12.27;;;11.60;85.60;;;;;;4931109;29;20023;-64
2021/04/14 11:57:22;;;;;;;15.52;12.18;;;10.30;90.00;;;;;;4932752;29;20027;-63
2021/04/14 12:00:19;;;;;;;16.20;12.20;;;10.00;90.10;;;;;;4930762;29;20469;-62
2021/04/14 12:02:47;;;;;;;15.45;12.07;;;9.90;90.50;;;;;;4928302;29;20544;-64
2021/04/14 12:05:13;;;;;;;16.65;12.20;;;9.90;90.70;;;;;;4926256;29;20119;-64
2021/04/14 12:07:39;;;;;;;16.63;12.18;;;10.20;91.60;;;;;;4924326;29;20059;-63
2021/04/14 12:10:06;;;;;;;16.27;12.43;;;10.60;91.20;;;;;;4928409;29;20076;-60
2021/04/14 12:12:33;;;;;;;17.20;12.40;;;;;;;;;;4952626;23;20497;-56
2021/04/14 12:14:59;;;;;;;16.40;12.52;;;;;;;;;;4947396;28;20032;-57
2021/04/14 12:17:25;;;;;;;18.33;12.60;;;;;;;;;;4947686;28;20028;-58
2021/04/14 12:19:52;;;;;;;15.95;11.95;;;;;;;;;;4951026;29;20034;-55
2021/04/14 12:22:18;;;;;;;17.38;12.05;;;;;;;;;;4953069;29;20023;-53
2021/04/14 12:24:47;;;;;;;18.02;12.57;;;;;;;;;;4951923;28;20470;-53
2021/04/14 12:27:13;;;;;;;16.25;13.30;;;;;;;;;;4954478;28;20425;-55
2021/04/14 12:29:39;;;;;;;16.48;12.45;;;;;;;;;;4972759;28;20027;-54
2021/04/14 12:32:06;;;;;;;16.83;12.75;;;;;;;;;;4957915;29;20458;-55
2021/04/14 12:34:32;;;;;;;18.52;13.27;;;;;;;;;;4957236;29;20039;-55
2021/04/14 12:37:01;;;;;;;16.65;13.38;;;;;;;;;;4957289;29;20375;-56
2021/04/14 12:39:27;;;;;;;18.33;13.52;;;;;;;;;;4957009;29;20110;-53
2021/04/14 12:41:53;;;;;;;15.88;13.30;;;;;;;;;;4957392;28;20099;-57
2021/04/14 12:44:21;;;;;;;17.63;13.70;;;;;;;;;;4957146;29;20027;-56
2021/04/14 12:46:48;;;;;;;17.30;13.90;;;;;;;;;;4957220;28;20031;-53
2021/04/14 12:49:15;;;;;;;17.08;14.07;;;;;;;;;;4956721;29;20162;-57
2021/04/14 12:51:45;;;;;;;17.45;14.70;;;;;;;;;;4956883;28;20031;-57
2021/04/14 12:54:14;;;;;;;18.25;14.27;;;;;;;;;;4956712;29;20043;-53
2021/04/14 12:56:43;;;;;;;17.75;14.48;;;11.10;90.10;;;;;;4957086;28;20030;-58
2021/04/14 12:59:13;;;;;;;17.45;14.82;;;19.30;61.50;;;;;;4956890;28;20031;-58
2021/04/14 13:01:40;;;;;;;17.10;15.25;;;20.40;55.10;;;;;;4955663;29;20027;-57
2021/04/14 13:04:14;;;;;;;18.38;14.70;;;20.50;54.10;;;;;;4956909;28;20043;-56
2021/04/14 13:06:45;;;;;;;17.77;15.10;;;;;;;;;;4956122;29;20027;-52
2021/04/14 13:09:13;;;;;;;16.33;14.52;;;20.80;54.40;;;;;;4956474;28;20031;-52
2021/04/14 13:11:48;;;;;;;17.27;14.55;;;;;;;;;;4956971;28;20058;-51
2021/04/14 13:14:14;;;;;;;19.83;15.02;;;;;;;;;;4956137;28;20465;-53
2021/04/14 13:16:56;;;;;;;16.25;13.50;;;;;;;;;;4971028;28;20031;-54
2021/04/14 13:19:22;;;;;;;20.20;15.05;;;;;;;;;;4971065;28;20090;-53
2021/04/14 13:22:09;;;;;;;18.45;14.65;;;;;;;;;;4956174;29;20035;-55
2021/04/14 13:24:38;;;;;;;17.65;13.70;;;;;;;;;;4936184;29;20508;-54
2021/04/14 13:27:10;;;;;;;17.45;13.70;;;;;;;;;;4952011;29;20046;-55
2021/04/14 13:29:39;;;;;;;16.75;14.55;;;;;;;;;;4937454;29;20086;-54
2021/04/14 13:32:18;;;;;;;17.27;13.55;;;;;;;;;;4948014;29;20039;-52
2021/04/14 13:34:50;;;;;;;16.38;12.45;;;;;;;;;;4957165;28;20570;-55
2021/04/14 13:37:18;;;;;;;16.33;12.00;;;;;;;;;;4971670;28;20081;-55
2021/04/14 13:39:44;;;;;;;18.67;11.77;;;;;;;;;;4970944;28;20027;-59
2021/04/14 13:42:14;;;;;;;15.90;11.20;;;;;;;;;;4954007;29;20031;-60
2021/04/14 13:44:59;;;;;;;17.45;10.45;;;;;;;;;;4955941;28;20039;-60
2021/04/14 13:47:25;;;;;;;17.63;9.32;;;;;;;;;;4956662;29;20061;-60
2021/04/14 13:49:55;;;;;;;15.15;9.50;;;;;;;;;;4956183;29;20023;-59
2021/04/14 13:52:25;;;;;;;15.80;11.00;;;;;;;;;;4949223;29;20032;-61
2021/04/14 13:54:51;;;;;;;16.45;9.73;;;;;;;;;;4970585;28;20450;-59
2021/04/14 13:57:20;;;;;;;16.33;9.00;;;;;;;;;;4955541;29;20114;-60
2021/04/14 14:00:01;;;;;;;14.63;8.38;;;;;;;;;;4954719;28;20027;-60
2021/04/14 14:02:41;;;;;;;19.85;11.50;;;;;;;;;;4956456;29;20060;-60
2021/04/14 14:05:09;;;;;;;14.98;10.43;;;;;;;;;;4955026;29;20027;-60
2021/04/14 14:07:35;;;;;;;17.73;11.38;;;14.90;62.00;;;;;;4955863;28;20015;-60
2021/04/14 14:10:03;;;;;;;15.10;10.40;;;;;;;;;;4956075;28;20433;-60
2021/04/14 14:12:33;;;;;;;17.27;12.32;;;;;;;;;;4970355;28;20544;-59
2021/04/14 14:15:00;;;;;;;16.70;12.57;;;;;;;;;;4969385;28;20023;-59
2021/04/14 14:17:29;;;;;;;17.27;13.90;;;;;;;;;;4954203;29;20035;-59
2021/04/14 14:19:58;;;;;;;16.45;12.88;;;;;;;;;;4955019;28;20031;-58
2021/04/14 14:22:26;;;;;;;17.92;13.55;;;;;;;;;;4953821;28;20031;-60
2021/04/14 14:24:52;;;;;;;16.23;14.07;;;;;;;;;;4953032;29;20034;-58
2021/04/14 14:27:19;;;;;;;16.65;13.93;;;;;;;;;;4955474;28;20031;-60
2021/04/14 14:29:45;;;;;;;16.10;13.65;;;;;;;;;;4970189;28;20019;-60